sensor_id;sensor_type;location;lat;lon;timestamp;P1;durP1;ratioP1;P2;durP2;ratioP2
28629;SDS011;15817;42.130;24.762;2024-01-30T00:01:28;5.50;;;4.38;;
28629;SDS011;15817;42.130;24.762;2024-01-30T00:03:54;6.63;;;4.47;;
28629;SDS011;15817;42.130;24.762;2024-01-30T00:06:19;5.63;;;4.05;;
28629;SDS011;15817;42.130;24.762;2024-01-30T00:08:49;7.13;;;4.13;;
28629;SDS011;15817;42.130;24.762;2024-01-30T00:11:15;7.18;;;3.92;;
28629;SDS011;15817;42.130;24.762;2024-01-30T00:13:41;8.27;;;4.22;;
28629;SDS011;15817;42.130;24.762;2024-01-30T00:16:07;7.10;;;3.90;;
28629;SDS011;15817;42.130;24.762;2024-01-30T00:18:36;7.13;;;4.45;;
28629;SDS011;15817;42.130;24.762;2024-01-30T00:21:05;7.35;;;4.07;;
28629;SDS011;15817;42.130;24.762;2024-01-30T00:23:33;6.38;;;3.97;;
28629;SDS011;15817;42.130;24.762;2024-01-30T00:25:59;6.72;;;3.95;;
28629;SDS011;15817;42.130;24.762;2024-01-30T00:28:25;6.35;;;4.03;;
28629;SDS011;15817;42.130;24.762;2024-01-30T00:30:51;8.95;;;4.30;;
28629;SDS011;15817;42.130;24.762;2024-01-30T00:33:16;6.28;;;4.07;;
28629;SDS011;15817;42.130;24.762;2024-01-30T00:35:42;6.60;;;4.25;;
28629;SDS011;15817;42.130;24.762;2024-01-30T00:38:08;8.57;;;3.78;;
28629;SDS011;15817;42.130;24.762;2024-01-30T00:40:34;6.40;;;3.80;;
28629;SDS011;15817;42.130;24.762;2024-01-30T00:43:00;6.15;;;4.15;;
28629;SDS011;15817;42.130;24.762;2024-01-30T00:45:26;5.10;;;3.72;;
28629;SDS011;15817;42.130;24.762;2024-01-30T00:47:54;8.27;;;4.10;;
28629;SDS011;15817;42.130;24.762;2024-01-30T00:50:21;7.10;;;4.65;;
28629;SDS011;15817;42.130;24.762;2024-01-30T00:52:47;7.20;;;4.53;;
28629;SDS011;15817;42.130;24.762;2024-01-30T00:55:18;7.32;;;3.92;;
28629;SDS011;15817;42.130;24.762;2024-01-30T00:57:48;6.40;;;4.40;;
28629;SDS011;15817;42.130;24.762;2024-01-30T01:00:14;7.25;;;4.38;;
28629;SDS011;15817;42.130;24.762;2024-01-30T01:02:43;7.32;;;4.30;;
28629;SDS011;15817;42.130;24.762;2024-01-30T01:05:10;5.60;;;3.78;;
28629;SDS011;15817;42.130;24.762;2024-01-30T01:07:35;7.72;;;4.13;;
28629;SDS011;15817;42.130;24.762;2024-01-30T01:10:01;6.15;;;4.10;;
28629;SDS011;15817;42.130;24.762;2024-01-30T01:12:27;6.28;;;3.78;;
28629;SDS011;15817;42.130;24.762;2024-01-30T01:14:53;6.45;;;4.18;;
28629;SDS011;15817;42.130;24.762;2024-01-30T01:17:21;6.78;;;4.20;;
28629;SDS011;15817;42.130;24.762;2024-01-30T01:19:50;7.55;;;5.07;;
28629;SDS011;15817;42.130;24.762;2024-01-30T01:22:18;8.77;;;4.28;;
28629;SDS011;15817;42.130;24.762;2024-01-30T01:24:44;6.88;;;4.72;;
28629;SDS011;15817;42.130;24.762;2024-01-30T01:27:09;6.32;;;4.53;;
28629;SDS011;15817;42.130;24.762;2024-01-30T01:29:35;11.27;;;6.10;;
28629;SDS011;15817;42.130;24.762;2024-01-30T01:32:01;10.68;;;5.70;;
28629;SDS011;15817;42.130;24.762;2024-01-30T01:34:29;9.90;;;6.35;;
28629;SDS011;15817;42.130;24.762;2024-01-30T01:36:55;10.82;;;5.00;;
28629;SDS011;15817;42.130;24.762;2024-01-30T01:39:22;13.40;;;5.07;;
28629;SDS011;15817;42.130;24.762;2024-01-30T01:41:51;9.75;;;5.00;;
28629;SDS011;15817;42.130;24.762;2024-01-30T01:44:17;13.50;;;4.85;;
28629;SDS011;15817;42.130;24.762;2024-01-30T01:46:45;15.63;;;5.18;;
28629;SDS011;15817;42.130;24.762;2024-01-30T01:49:11;8.88;;;4.82;;
28629;SDS011;15817;42.130;24.762;2024-01-30T01:51:39;10.25;;;4.78;;
28629;SDS011;15817;42.130;24.762;2024-01-30T01:54:06;13.10;;;5.68;;
28629;SDS011;15817;42.130;24.762;2024-01-30T01:56:33;11.15;;;5.63;;
28629;SDS011;15817;42.130;24.762;2024-01-30T01:59:06;11.13;;;4.97;;
28629;SDS011;15817;42.130;24.762;2024-01-30T02:01:38;9.90;;;5.20;;
28629;SDS011;15817;42.130;24.762;2024-01-30T02:04:07;11.02;;;6.05;;
28629;SDS011;15817;42.130;24.762;2024-01-30T02:06:33;10.85;;;5.40;;
28629;SDS011;15817;42.130;24.762;2024-01-30T02:09:02;8.98;;;4.90;;
28629;SDS011;15817;42.130;24.762;2024-01-30T02:11:29;10.18;;;4.78;;
28629;SDS011;15817;42.130;24.762;2024-01-30T02:13:56;8.85;;;4.90;;
28629;SDS011;15817;42.130;24.762;2024-01-30T02:16:24;9.13;;;5.05;;
28629;SDS011;15817;42.130;24.762;2024-01-30T02:18:50;12.25;;;5.70;;
28629;SDS011;15817;42.130;24.762;2024-01-30T02:21:19;11.05;;;5.40;;
28629;SDS011;15817;42.130;24.762;2024-01-30T02:23:47;11.18;;;6.07;;
28629;SDS011;15817;42.130;24.762;2024-01-30T02:26:15;11.63;;;5.55;;
28629;SDS011;15817;42.130;24.762;2024-01-30T02:28:41;14.70;;;5.25;;
28629;SDS011;15817;42.130;24.762;2024-01-30T02:31:07;9.88;;;5.05;;
28629;SDS011;15817;42.130;24.762;2024-01-30T02:33:32;8.32;;;5.53;;
28629;SDS011;15817;42.130;24.762;2024-01-30T02:35:58;11.43;;;5.57;;
28629;SDS011;15817;42.130;24.762;2024-01-30T02:38:24;8.00;;;5.68;;
28629;SDS011;15817;42.130;24.762;2024-01-30T02:40:52;10.68;;;5.68;;
28629;SDS011;15817;42.130;24.762;2024-01-30T02:43:18;8.10;;;5.45;;
28629;SDS011;15817;42.130;24.762;2024-01-30T02:45:44;7.97;;;5.78;;
28629;SDS011;15817;42.130;24.762;2024-01-30T02:48:11;11.45;;;6.03;;
28629;SDS011;15817;42.130;24.762;2024-01-30T02:50:37;8.52;;;5.82;;
28629;SDS011;15817;42.130;24.762;2024-01-30T02:53:03;11.77;;;5.40;;
28629;SDS011;15817;42.130;24.762;2024-01-30T02:55:32;10.57;;;5.68;;
28629;SDS011;15817;42.130;24.762;2024-01-30T02:57:58;13.52;;;7.63;;
28629;SDS011;15817;42.130;24.762;2024-01-30T03:00:24;16.55;;;7.68;;
28629;SDS011;15817;42.130;24.762;2024-01-30T03:02:52;11.48;;;6.78;;
28629;SDS011;15817;42.130;24.762;2024-01-30T03:05:32;11.38;;;6.05;;
28629;SDS011;15817;42.130;24.762;2024-01-30T03:08:08;13.23;;;6.35;;
28629;SDS011;15817;42.130;24.762;2024-01-30T03:10:33;12.52;;;6.20;;
28629;SDS011;15817;42.130;24.762;2024-01-30T03:12:59;8.05;;;5.75;;
28629;SDS011;15817;42.130;24.762;2024-01-30T03:15:25;13.55;;;6.30;;
28629;SDS011;15817;42.130;24.762;2024-01-30T03:17:51;11.60;;;5.97;;
28629;SDS011;15817;42.130;24.762;2024-01-30T03:20:18;11.85;;;5.80;;
28629;SDS011;15817;42.130;24.762;2024-01-30T03:22:47;8.90;;;5.93;;
28629;SDS011;15817;42.130;24.762;2024-01-30T03:25:13;16.25;;;9.35;;
28629;SDS011;15817;42.130;24.762;2024-01-30T03:27:41;18.42;;;10.55;;
28629;SDS011;15817;42.130;24.762;2024-01-30T03:30:07;19.65;;;8.90;;
28629;SDS011;15817;42.130;24.762;2024-01-30T03:32:33;12.40;;;7.18;;
28629;SDS011;15817;42.130;24.762;2024-01-30T03:34:59;10.40;;;6.85;;
28629;SDS011;15817;42.130;24.762;2024-01-30T03:37:27;11.02;;;6.43;;
28629;SDS011;15817;42.130;24.762;2024-01-30T03:39:56;15.32;;;6.63;;
28629;SDS011;15817;42.130;24.762;2024-01-30T03:42:22;13.52;;;6.75;;
28629;SDS011;15817;42.130;24.762;2024-01-30T03:44:48;15.10;;;6.75;;
28629;SDS011;15817;42.130;24.762;2024-01-30T03:47:17;14.63;;;6.85;;
28629;SDS011;15817;42.130;24.762;2024-01-30T03:49:43;14.02;;;7.03;;
28629;SDS011;15817;42.130;24.762;2024-01-30T03:52:11;14.55;;;6.93;;
28629;SDS011;15817;42.130;24.762;2024-01-30T03:54:37;10.80;;;6.88;;
28629;SDS011;15817;42.130;24.762;2024-01-30T03:57:03;23.42;;;7.65;;
28629;SDS011;15817;42.130;24.762;2024-01-30T03:59:31;11.55;;;6.85;;
28629;SDS011;15817;42.130;24.762;2024-01-30T04:01:57;12.35;;;7.07;;
28629;SDS011;15817;42.130;24.762;2024-01-30T04:04:26;13.25;;;6.82;;
28629;SDS011;15817;42.130;24.762;2024-01-30T04:06:54;11.45;;;6.43;;
28629;SDS011;15817;42.130;24.762;2024-01-30T04:09:20;12.13;;;7.07;;
28629;SDS011;15817;42.130;24.762;2024-01-30T04:11:46;11.98;;;6.60;;
28629;SDS011;15817;42.130;24.762;2024-01-30T04:14:12;15.82;;;7.07;;
28629;SDS011;15817;42.130;24.762;2024-01-30T04:16:40;13.70;;;7.10;;
28629;SDS011;15817;42.130;24.762;2024-01-30T04:19:09;18.13;;;7.97;;
28629;SDS011;15817;42.130;24.762;2024-01-30T04:21:35;11.95;;;7.22;;
28629;SDS011;15817;42.130;24.762;2024-01-30T04:24:03;11.90;;;7.10;;
28629;SDS011;15817;42.130;24.762;2024-01-30T04:26:32;12.60;;;7.57;;
28629;SDS011;15817;42.130;24.762;2024-01-30T04:28:57;12.15;;;6.32;;
28629;SDS011;15817;42.130;24.762;2024-01-30T04:31:23;12.52;;;6.60;;
28629;SDS011;15817;42.130;24.762;2024-01-30T04:33:52;12.40;;;6.38;;
28629;SDS011;15817;42.130;24.762;2024-01-30T04:36:18;11.82;;;6.13;;
28629;SDS011;15817;42.130;24.762;2024-01-30T04:38:43;15.48;;;7.05;;
28629;SDS011;15817;42.130;24.762;2024-01-30T04:41:09;14.90;;;7.22;;
28629;SDS011;15817;42.130;24.762;2024-01-30T04:43:43;16.30;;;7.53;;
28629;SDS011;15817;42.130;24.762;2024-01-30T04:46:09;12.18;;;6.78;;
28629;SDS011;15817;42.130;24.762;2024-01-30T04:48:35;15.50;;;7.43;;
28629;SDS011;15817;42.130;24.762;2024-01-30T04:51:01;14.68;;;7.88;;
28629;SDS011;15817;42.130;24.762;2024-01-30T04:53:29;14.60;;;8.10;;
28629;SDS011;15817;42.130;24.762;2024-01-30T04:55:56;14.55;;;8.57;;
28629;SDS011;15817;42.130;24.762;2024-01-30T04:58:24;19.92;;;8.18;;
28629;SDS011;15817;42.130;24.762;2024-01-30T05:00:50;17.20;;;8.43;;
28629;SDS011;15817;42.130;24.762;2024-01-30T05:03:18;16.88;;;9.02;;
28629;SDS011;15817;42.130;24.762;2024-01-30T05:05:44;18.40;;;8.35;;
28629;SDS011;15817;42.130;24.762;2024-01-30T05:08:13;13.93;;;8.00;;
28629;SDS011;15817;42.130;24.762;2024-01-30T05:10:38;13.52;;;7.97;;
28629;SDS011;15817;42.130;24.762;2024-01-30T05:13:04;13.85;;;7.85;;
28629;SDS011;15817;42.130;24.762;2024-01-30T05:15:30;15.75;;;7.22;;
28629;SDS011;15817;42.130;24.762;2024-01-30T05:17:56;15.93;;;7.93;;
28629;SDS011;15817;42.130;24.762;2024-01-30T05:20:22;17.65;;;7.90;;
28629;SDS011;15817;42.130;24.762;2024-01-30T05:22:48;14.82;;;7.72;;
28629;SDS011;15817;42.130;24.762;2024-01-30T05:25:13;27.77;;;8.35;;
28629;SDS011;15817;42.130;24.762;2024-01-30T05:27:39;17.88;;;8.82;;
28629;SDS011;15817;42.130;24.762;2024-01-30T05:30:06;18.48;;;8.75;;
28629;SDS011;15817;42.130;24.762;2024-01-30T05:32:32;21.40;;;8.90;;
28629;SDS011;15817;42.130;24.762;2024-01-30T05:35:00;18.80;;;10.07;;
28629;SDS011;15817;42.130;24.762;2024-01-30T05:37:28;21.50;;;11.60;;
28629;SDS011;15817;42.130;24.762;2024-01-30T05:39:54;27.75;;;10.82;;
28629;SDS011;15817;42.130;24.762;2024-01-30T05:42:25;19.02;;;9.55;;
28629;SDS011;15817;42.130;24.762;2024-01-30T05:44:54;24.33;;;9.70;;
28629;SDS011;15817;42.130;24.762;2024-01-30T05:47:23;25.58;;;10.68;;
28629;SDS011;15817;42.130;24.762;2024-01-30T05:49:51;18.73;;;9.82;;
28629;SDS011;15817;42.130;24.762;2024-01-30T05:52:20;16.15;;;9.05;;
28629;SDS011;15817;42.130;24.762;2024-01-30T05:54:48;18.13;;;9.27;;
28629;SDS011;15817;42.130;24.762;2024-01-30T05:57:16;24.60;;;11.48;;
28629;SDS011;15817;42.130;24.762;2024-01-30T05:59:45;28.58;;;12.70;;
28629;SDS011;15817;42.130;24.762;2024-01-30T06:02:13;27.90;;;12.13;;
28629;SDS011;15817;42.130;24.762;2024-01-30T06:04:39;29.77;;;11.10;;
28629;SDS011;15817;42.130;24.762;2024-01-30T06:07:05;29.90;;;10.55;;
28629;SDS011;15817;42.130;24.762;2024-01-30T06:09:33;29.42;;;10.73;;
28629;SDS011;15817;42.130;24.762;2024-01-30T06:11:59;23.75;;;9.35;;
28629;SDS011;15817;42.130;24.762;2024-01-30T06:14:27;19.45;;;9.50;;
28629;SDS011;15817;42.130;24.762;2024-01-30T06:16:53;29.58;;;10.02;;
28629;SDS011;15817;42.130;24.762;2024-01-30T06:19:21;23.52;;;10.80;;
28629;SDS011;15817;42.130;24.762;2024-01-30T06:21:57;19.80;;;10.10;;
28629;SDS011;15817;42.130;24.762;2024-01-30T06:24:48;20.13;;;8.50;;
28629;SDS011;15817;42.130;24.762;2024-01-30T06:27:48;13.98;;;8.40;;
28629;SDS011;15817;42.130;24.762;2024-01-30T06:30:30;36.00;;;21.20;;
28629;SDS011;15817;42.130;24.762;2024-01-30T06:33:24;23.83;;;8.95;;
28629;SDS011;15817;42.130;24.762;2024-01-30T06:35:50;20.15;;;8.38;;
28629;SDS011;15817;42.130;24.762;2024-01-30T06:38:16;16.50;;;8.55;;
28629;SDS011;15817;42.130;24.762;2024-01-30T06:40:42;19.00;;;10.07;;
28629;SDS011;15817;42.130;24.762;2024-01-30T06:43:08;17.27;;;9.65;;
28629;SDS011;15817;42.130;24.762;2024-01-30T06:45:36;19.27;;;10.00;;
28629;SDS011;15817;42.130;24.762;2024-01-30T06:48:08;18.02;;;9.32;;
28629;SDS011;15817;42.130;24.762;2024-01-30T06:50:37;18.88;;;8.90;;
28629;SDS011;15817;42.130;24.762;2024-01-30T06:53:03;25.77;;;10.35;;
28629;SDS011;15817;42.130;24.762;2024-01-30T06:55:29;21.10;;;9.90;;
28629;SDS011;15817;42.130;24.762;2024-01-30T06:57:58;22.75;;;10.85;;
28629;SDS011;15817;42.130;24.762;2024-01-30T07:00:26;16.42;;;9.25;;
28629;SDS011;15817;42.130;24.762;2024-01-30T07:02:54;22.08;;;9.90;;
28629;SDS011;15817;42.130;24.762;2024-01-30T07:05:27;23.02;;;8.85;;
28629;SDS011;15817;42.130;24.762;2024-01-30T07:07:56;19.95;;;9.63;;
28629;SDS011;15817;42.130;24.762;2024-01-30T07:10:24;25.83;;;8.82;;
28629;SDS011;15817;42.130;24.762;2024-01-30T07:12:50;18.50;;;9.10;;
28629;SDS011;15817;42.130;24.762;2024-01-30T07:15:32;14.55;;;8.55;;
28629;SDS011;15817;42.130;24.762;2024-01-30T07:18:05;20.88;;;8.77;;
28629;SDS011;15817;42.130;24.762;2024-01-30T07:20:31;17.20;;;9.00;;
28629;SDS011;15817;42.130;24.762;2024-01-30T07:23:05;18.40;;;9.05;;
28629;SDS011;15817;42.130;24.762;2024-01-30T07:25:30;21.73;;;9.02;;
28629;SDS011;15817;42.130;24.762;2024-01-30T07:27:56;17.88;;;8.85;;
28629;SDS011;15817;42.130;24.762;2024-01-30T07:35:54;15.15;;;7.82;;
28629;SDS011;15817;42.130;24.762;2024-01-30T07:38:20;22.17;;;8.80;;
28629;SDS011;15817;42.130;24.762;2024-01-30T07:40:49;63.25;;;35.40;;
28629;SDS011;15817;42.130;24.762;2024-01-30T07:43:18;36.97;;;17.60;;
28629;SDS011;15817;42.130;24.762;2024-01-30T07:45:45;16.10;;;9.27;;
28629;SDS011;15817;42.130;24.762;2024-01-30T07:48:13;22.67;;;8.63;;
28629;SDS011;15817;42.130;24.762;2024-01-30T07:50:41;16.80;;;7.95;;
28629;SDS011;15817;42.130;24.762;2024-01-30T07:53:10;15.52;;;7.05;;
28629;SDS011;15817;42.130;24.762;2024-01-30T07:55:38;15.70;;;6.60;;
28629;SDS011;15817;42.130;24.762;2024-01-30T07:58:28;12.02;;;6.75;;
28629;SDS011;15817;42.130;24.762;2024-01-30T08:01:20;12.45;;;6.78;;
28629;SDS011;15817;42.130;24.762;2024-01-30T08:03:46;12.57;;;6.88;;
28629;SDS011;15817;42.130;24.762;2024-01-30T08:06:14;11.18;;;5.63;;
28629;SDS011;15817;42.130;24.762;2024-01-30T08:08:48;12.85;;;6.72;;
28629;SDS011;15817;42.130;24.762;2024-01-30T08:11:13;11.60;;;5.60;;
28629;SDS011;15817;42.130;24.762;2024-01-30T08:13:39;10.88;;;6.15;;
28629;SDS011;15817;42.130;24.762;2024-01-30T08:16:16;21.27;;;8.73;;
28629;SDS011;15817;42.130;24.762;2024-01-30T08:18:52;16.50;;;7.28;;
28629;SDS011;15817;42.130;24.762;2024-01-30T08:21:18;22.95;;;7.57;;
28629;SDS011;15817;42.130;24.762;2024-01-30T08:23:44;16.33;;;6.65;;
28629;SDS011;15817;42.130;24.762;2024-01-30T08:26:20;13.70;;;5.80;;
28629;SDS011;15817;42.130;24.762;2024-01-30T08:28:51;14.30;;;6.07;;
28629;SDS011;15817;42.130;24.762;2024-01-30T08:31:42;16.05;;;5.75;;
28629;SDS011;15817;42.130;24.762;2024-01-30T08:34:34;9.82;;;5.50;;
28629;SDS011;15817;42.130;24.762;2024-01-30T08:37:31;14.20;;;5.30;;
28629;SDS011;15817;42.130;24.762;2024-01-30T08:40:24;9.38;;;4.90;;
28629;SDS011;15817;42.130;24.762;2024-01-30T08:43:06;7.47;;;5.13;;
28629;SDS011;15817;42.130;24.762;2024-01-30T08:45:44;9.85;;;5.53;;
28629;SDS011;15817;42.130;24.762;2024-01-30T08:48:14;9.55;;;5.43;;
28629;SDS011;15817;42.130;24.762;2024-01-30T08:50:54;10.68;;;5.68;;
28629;SDS011;15817;42.130;24.762;2024-01-30T08:53:27;10.27;;;4.28;;
28629;SDS011;15817;42.130;24.762;2024-01-30T08:55:58;6.43;;;4.15;;
28629;SDS011;15817;42.130;24.762;2024-01-30T08:58:32;13.18;;;4.47;;
28629;SDS011;15817;42.130;24.762;2024-01-30T09:01:04;11.23;;;4.45;;
28629;SDS011;15817;42.130;24.762;2024-01-30T09:03:33;7.78;;;4.28;;
28629;SDS011;15817;42.130;24.762;2024-01-30T09:06:04;9.57;;;4.88;;
28629;SDS011;15817;42.130;24.762;2024-01-30T09:08:36;9.30;;;4.18;;
28629;SDS011;15817;42.130;24.762;2024-01-30T09:11:36;9.38;;;4.80;;
28629;SDS011;15817;42.130;24.762;2024-01-30T09:14:34;9.35;;;4.80;;
28629;SDS011;15817;42.130;24.762;2024-01-30T09:17:07;10.48;;;5.10;;
28629;SDS011;15817;42.130;24.762;2024-01-30T09:19:33;7.88;;;4.82;;
28629;SDS011;15817;42.130;24.762;2024-01-30T09:22:01;7.97;;;4.68;;
28629;SDS011;15817;42.130;24.762;2024-01-30T09:24:30;11.50;;;4.53;;
28629;SDS011;15817;42.130;24.762;2024-01-30T09:26:58;9.63;;;4.78;;
28629;SDS011;15817;42.130;24.762;2024-01-30T09:29:38;12.88;;;4.18;;
28629;SDS011;15817;42.130;24.762;2024-01-30T09:32:04;11.90;;;4.80;;
28629;SDS011;15817;42.130;24.762;2024-01-30T09:34:49;8.52;;;4.65;;
28629;SDS011;15817;42.130;24.762;2024-01-30T09:37:23;11.18;;;4.72;;
28629;SDS011;15817;42.130;24.762;2024-01-30T09:40:02;12.80;;;4.95;;
28629;SDS011;15817;42.130;24.762;2024-01-30T09:42:57;15.02;;;5.80;;
28629;SDS011;15817;42.130;24.762;2024-01-30T09:45:27;15.07;;;5.43;;
28629;SDS011;15817;42.130;24.762;2024-01-30T09:48:11;14.55;;;5.00;;
28629;SDS011;15817;42.130;24.762;2024-01-30T09:50:41;12.93;;;5.55;;
28629;SDS011;15817;42.130;24.762;2024-01-30T09:53:23;14.98;;;5.95;;
28629;SDS011;15817;42.130;24.762;2024-01-30T09:56:01;12.82;;;6.28;;
28629;SDS011;15817;42.130;24.762;2024-01-30T09:58:40;12.05;;;7.45;;
28629;SDS011;15817;42.130;24.762;2024-01-30T10:01:08;16.50;;;7.97;;
28629;SDS011;15817;42.130;24.762;2024-01-30T10:03:35;18.88;;;7.70;;
28629;SDS011;15817;42.130;24.762;2024-01-30T10:06:05;8.45;;;5.97;;
28629;SDS011;15817;42.130;24.762;2024-01-30T10:08:41;14.27;;;6.82;;
28629;SDS011;15817;42.130;24.762;2024-01-30T10:11:08;11.20;;;6.13;;
28629;SDS011;15817;42.130;24.762;2024-01-30T10:16:36;12.05;;;6.53;;
28629;SDS011;15817;42.130;24.762;2024-01-30T10:19:18;13.55;;;6.53;;
28629;SDS011;15817;42.130;24.762;2024-01-30T10:21:51;13.98;;;6.05;;
28629;SDS011;15817;42.130;24.762;2024-01-30T10:24:24;17.95;;;6.40;;
28629;SDS011;15817;42.130;24.762;2024-01-30T10:27:05;13.43;;;5.95;;
28629;SDS011;15817;42.130;24.762;2024-01-30T10:29:42;12.50;;;6.45;;
28629;SDS011;15817;42.130;24.762;2024-01-30T10:32:08;18.00;;;7.05;;
28629;SDS011;15817;42.130;24.762;2024-01-30T10:34:34;9.38;;;6.10;;
28629;SDS011;15817;42.130;24.762;2024-01-30T10:37:09;9.40;;;5.85;;
28629;SDS011;15817;42.130;24.762;2024-01-30T10:42:42;8.43;;;5.68;;
28629;SDS011;15817;42.130;24.762;2024-01-30T10:45:31;11.75;;;5.30;;
28629;SDS011;15817;42.130;24.762;2024-01-30T10:48:01;6.80;;;4.88;;
28629;SDS011;15817;42.130;24.762;2024-01-30T10:50:33;5.85;;;4.05;;
28629;SDS011;15817;42.130;24.762;2024-01-30T10:56:17;37.85;;;6.90;;
28629;SDS011;15817;42.130;24.762;2024-01-30T10:59:00;140.63;;;15.00;;
28629;SDS011;15817;42.130;24.762;2024-01-30T11:01:55;48.17;;;8.65;;
28629;SDS011;15817;42.130;24.762;2024-01-30T11:04:45;44.08;;;5.57;;
28629;SDS011;15817;42.130;24.762;2024-01-30T11:07:31;52.13;;;6.95;;
28629;SDS011;15817;42.130;24.762;2024-01-30T11:10:05;17.00;;;4.68;;
28629;SDS011;15817;42.130;24.762;2024-01-30T11:12:53;14.38;;;4.88;;
28629;SDS011;15817;42.130;24.762;2024-01-30T11:15:42;21.75;;;5.38;;
28629;SDS011;15817;42.130;24.762;2024-01-30T11:18:28;6.10;;;4.35;;
28629;SDS011;15817;42.130;24.762;2024-01-30T11:21:04;7.07;;;3.83;;
28629;SDS011;15817;42.130;24.762;2024-01-30T11:23:33;9.05;;;4.28;;
28629;SDS011;15817;42.130;24.762;2024-01-30T11:26:10;7.28;;;3.75;;
28629;SDS011;15817;42.130;24.762;2024-01-30T11:29:09;14.10;;;4.70;;
28629;SDS011;15817;42.130;24.762;2024-01-30T11:31:37;12.48;;;4.65;;
28629;SDS011;15817;42.130;24.762;2024-01-30T11:34:06;8.52;;;4.78;;
28629;SDS011;15817;42.130;24.762;2024-01-30T11:36:35;5.40;;;3.92;;
28629;SDS011;15817;42.130;24.762;2024-01-30T11:39:03;7.63;;;3.85;;
28629;SDS011;15817;42.130;24.762;2024-01-30T11:41:32;8.15;;;4.15;;
28629;SDS011;15817;42.130;24.762;2024-01-30T11:44:03;6.15;;;4.05;;
28629;SDS011;15817;42.130;24.762;2024-01-30T11:46:29;8.70;;;3.85;;
28629;SDS011;15817;42.130;24.762;2024-01-30T11:48:55;12.00;;;5.32;;
28629;SDS011;15817;42.130;24.762;2024-01-30T11:51:21;5.50;;;2.60;;
28629;SDS011;15817;42.130;24.762;2024-01-30T11:53:52;3.22;;;2.45;;
28629;SDS011;15817;42.130;24.762;2024-01-30T11:56:18;9.05;;;3.33;;
28629;SDS011;15817;42.130;24.762;2024-01-30T11:58:49;6.20;;;3.42;;
28629;SDS011;15817;42.130;24.762;2024-01-30T12:01:16;11.32;;;3.42;;
28629;SDS011;15817;42.130;24.762;2024-01-30T12:03:54;5.70;;;3.05;;
28629;SDS011;15817;42.130;24.762;2024-01-30T12:06:23;4.90;;;3.05;;
28629;SDS011;15817;42.130;24.762;2024-01-30T12:08:57;3.70;;;2.35;;
28629;SDS011;15817;42.130;24.762;2024-01-30T12:11:30;3.80;;;2.70;;
28629;SDS011;15817;42.130;24.762;2024-01-30T12:14:46;3.42;;;2.40;;
28629;SDS011;15817;42.130;24.762;2024-01-30T12:17:40;5.20;;;3.08;;
28629;SDS011;15817;42.130;24.762;2024-01-30T12:20:26;4.57;;;3.13;;
28629;SDS011;15817;42.130;24.762;2024-01-30T12:23:02;7.72;;;3.60;;
28629;SDS011;15817;42.130;24.762;2024-01-30T12:25:39;4.53;;;2.95;;
28629;SDS011;15817;42.130;24.762;2024-01-30T12:28:12;6.30;;;2.83;;
28629;SDS011;15817;42.130;24.762;2024-01-30T12:30:50;5.63;;;3.17;;
28629;SDS011;15817;42.130;24.762;2024-01-30T12:33:48;4.18;;;2.70;;
28629;SDS011;15817;42.130;24.762;2024-01-30T12:36:40;3.97;;;3.15;;
28629;SDS011;15817;42.130;24.762;2024-01-30T12:39:10;4.32;;;3.08;;
28629;SDS011;15817;42.130;24.762;2024-01-30T12:41:51;3.40;;;2.60;;
28629;SDS011;15817;42.130;24.762;2024-01-30T12:44:22;6.50;;;2.85;;
28629;SDS011;15817;42.130;24.762;2024-01-30T12:46:50;6.95;;;3.05;;
28629;SDS011;15817;42.130;24.762;2024-01-30T12:49:43;7.10;;;3.85;;
28629;SDS011;15817;42.130;24.762;2024-01-30T12:52:37;3.95;;;2.65;;
28629;SDS011;15817;42.130;24.762;2024-01-30T12:55:13;5.07;;;2.78;;
28629;SDS011;15817;42.130;24.762;2024-01-30T12:57:51;5.05;;;3.35;;
28629;SDS011;15817;42.130;24.762;2024-01-30T13:00:20;4.82;;;2.88;;
28629;SDS011;15817;42.130;24.762;2024-01-30T13:02:51;5.72;;;3.05;;
28629;SDS011;15817;42.130;24.762;2024-01-30T13:05:18;5.00;;;2.88;;
28629;SDS011;15817;42.130;24.762;2024-01-30T13:08:06;4.47;;;3.00;;
28629;SDS011;15817;42.130;24.762;2024-01-30T13:10:40;4.88;;;2.63;;
28629;SDS011;15817;42.130;24.762;2024-01-30T13:13:06;4.80;;;2.97;;
28629;SDS011;15817;42.130;24.762;2024-01-30T13:15:37;3.72;;;2.85;;
28629;SDS011;15817;42.130;24.762;2024-01-30T13:18:02;3.45;;;2.70;;
28629;SDS011;15817;42.130;24.762;2024-01-30T13:20:29;4.57;;;3.22;;
28629;SDS011;15817;42.130;24.762;2024-01-30T13:22:54;3.90;;;2.88;;
28629;SDS011;15817;42.130;24.762;2024-01-30T13:25:27;5.60;;;3.50;;
28629;SDS011;15817;42.130;24.762;2024-01-30T13:27:52;5.55;;;3.25;;
28629;SDS011;15817;42.130;24.762;2024-01-30T13:30:28;6.00;;;3.90;;
28629;SDS011;15817;42.130;24.762;2024-01-30T13:32:59;7.80;;;3.65;;
28629;SDS011;15817;42.130;24.762;2024-01-30T13:35:28;9.45;;;3.63;;
28629;SDS011;15817;42.130;24.762;2024-01-30T13:37:59;6.93;;;3.75;;
28629;SDS011;15817;42.130;24.762;2024-01-30T13:40:25;4.70;;;3.67;;
28629;SDS011;15817;42.130;24.762;2024-01-30T13:42:51;5.50;;;3.63;;
28629;SDS011;15817;42.130;24.762;2024-01-30T13:45:19;5.82;;;3.88;;
28629;SDS011;15817;42.130;24.762;2024-01-30T13:47:46;5.97;;;3.35;;
28629;SDS011;15817;42.130;24.762;2024-01-30T13:50:19;4.28;;;2.97;;
28629;SDS011;15817;42.130;24.762;2024-01-30T13:52:48;7.60;;;3.47;;
28629;SDS011;15817;42.130;24.762;2024-01-30T13:55:13;5.70;;;3.50;;
28629;SDS011;15817;42.130;24.762;2024-01-30T13:57:47;6.93;;;4.22;;
28629;SDS011;15817;42.130;24.762;2024-01-30T14:00:13;6.22;;;4.03;;
28629;SDS011;15817;42.130;24.762;2024-01-30T14:02:50;7.82;;;4.00;;
28629;SDS011;15817;42.130;24.762;2024-01-30T14:05:16;6.43;;;4.20;;
28629;SDS011;15817;42.130;24.762;2024-01-30T14:07:45;7.78;;;3.60;;
28629;SDS011;15817;42.130;24.762;2024-01-30T14:10:13;5.82;;;3.55;;
28629;SDS011;15817;42.130;24.762;2024-01-30T14:12:39;6.65;;;4.03;;
28629;SDS011;15817;42.130;24.762;2024-01-30T14:15:07;11.98;;;6.03;;
28629;SDS011;15817;42.130;24.762;2024-01-30T14:17:35;12.25;;;4.47;;
28629;SDS011;15817;42.130;24.762;2024-01-30T14:20:03;6.75;;;3.70;;
28629;SDS011;15817;42.130;24.762;2024-01-30T14:22:30;6.40;;;3.95;;
28629;SDS011;15817;42.130;24.762;2024-01-30T14:24:59;7.00;;;3.67;;
28629;SDS011;15817;42.130;24.762;2024-01-30T14:27:25;6.95;;;3.60;;
28629;SDS011;15817;42.130;24.762;2024-01-30T14:29:54;8.63;;;3.78;;
28629;SDS011;15817;42.130;24.762;2024-01-30T14:32:43;5.60;;;3.30;;
28629;SDS011;15817;42.130;24.762;2024-01-30T14:39:38;5.05;;;3.45;;
28629;SDS011;15817;42.130;24.762;2024-01-30T14:42:06;7.50;;;3.80;;
28629;SDS011;15817;42.130;24.762;2024-01-30T14:44:32;7.97;;;3.40;;
28629;SDS011;15817;42.130;24.762;2024-01-30T14:46:59;4.85;;;2.90;;
28629;SDS011;15817;42.130;24.762;2024-01-30T14:49:28;7.53;;;3.45;;
28629;SDS011;15817;42.130;24.762;2024-01-30T14:51:54;7.93;;;5.20;;
28629;SDS011;15817;42.130;24.762;2024-01-30T14:54:22;5.55;;;3.53;;
28629;SDS011;15817;42.130;24.762;2024-01-30T14:56:48;8.07;;;3.25;;
28629;SDS011;15817;42.130;24.762;2024-01-30T14:59:17;5.22;;;3.17;;
28629;SDS011;15817;42.130;24.762;2024-01-30T15:01:42;4.68;;;3.40;;
28629;SDS011;15817;42.130;24.762;2024-01-30T15:04:10;6.00;;;3.95;;
28629;SDS011;15817;42.130;24.762;2024-01-30T15:06:36;9.43;;;3.80;;